Open Full Screen Window  High Contrast Mode
September 22, 2014 7:16 PM CDT
Weather Information
Wind Direction
  ---
Wind Speed
  00 kt (0 mph)
Wind Gust
  00 kt (0 mph)
Altimeter
30.24 in
Visibility
10 SM
Temperature
13° C
55° F
Dewpoint
05° C
41° F
Humidity
59%
Sky Condition
Clear
VFR

METAR KAXV 230016Z AUTO 00000KT 10SM CLR 13/05 A3024 RMK AO2

*Background is not an actual portrayal of the airport.